This is the latest recevied weather packets stored in our database for station/object DL9GJ-6. If no packets are shown the sender has not sent any weather packets the latest 10 day(s).
| Time | Temp. | Humidity | Pressure | Rain* | Wind** | Luminosity | Snow |
|---|---|---|---|---|---|---|---|
| 1777285917 | 17.78° C | 43% | 1020.3 hPa | 0 mm | - | 831 W/m² | - |
| 1777285557 | 17.22° C | 43% | 1020.4 hPa | 0 mm | - | 826 W/m² | - |
| 1777285197 | 16.67° C | 43% | 1020.4 hPa | 0 mm | - | 594 W/m² | - |
| 1777284838 | 16.67° C | 42% | 1020.4 hPa | 0 mm | - | 853 W/m² | - |
| 1777284479 | 17.22° C | 42% | 1020.5 hPa | 0 mm | - | 789 W/m² | - |
| 1777284119 | 17.22° C | 43% | 1020.5 hPa | 0 mm | - | 837 W/m² | - |
| 1777283759 | 16.67° C | 45% | 1020.6 hPa | 0 mm | - | 795 W/m² | - |
| 1777283398 | 16.67° C | 43% | 1020.7 hPa | 0 mm | - | 607 W/m² | - |
| 1777283038 | 17.22° C | 43% | 1020.7 hPa | 0 mm | - | 805 W/m² | - |
| 1777282679 | 17.22° C | 44% | 1020.7 hPa | 0 mm | - | 610 W/m² | - |
| 1777282318 | 17.22° C | 44% | 1020.8 hPa | 0 mm | - | 568 W/m² | - |
| 1777281958 | 17.22° C | 43% | 1020.9 hPa | 0 mm | - | 661 W/m² | - |
| 1777281599 | 16.67° C | 46% | 1021 hPa | 0 mm | - | 682 W/m² | - |
| 1777281237 | 16.67° C | 47% | 1021 hPa | 0 mm | - | 794 W/m² | - |
| 1777280878 | 16.67° C | 46% | 1021.1 hPa | 0 mm | - | 781 W/m² | - |
| 1777280851 | 16.67° C | 46% | 1021.1 hPa | 0 mm | - | 781 W/m² | - |
| 1777280518 | 16.67° C | 44% | 1021.1 hPa | 0 mm | - | 755 W/m² | - |
| 1777280158 | 15.56° C | 46% | 1021.1 hPa | 0 mm | - | 732 W/m² | - |
| 1777279799 | 14.44° C | 55% | 1021.1 hPa | 0 mm | - | 676 W/m² | - |
| 1777279438 | 14.44° C | 55% | 1021.2 hPa | 0 mm | - | 588 W/m² | - |
| 1777279409 | 14.44° C | 55% | 1021.2 hPa | 0 mm | - | 588 W/m² | - |
| 1777279079 | 14.44° C | 54% | 1021.2 hPa | 0 mm | - | 682 W/m² | - |
* Rain latest hour (hover to see other rain measurements)
** Current wind speed in m/s (hover to see current wind gust speed)